sensor_id;sensor_type;location;lat;lon;timestamp;pressure;altitude;pressure_sealevel;temperature;humidity
24558;BME280;12726;49.148;8.582;2022-11-20T00:00:41;100010.34;;;3.70;100.00
24558;BME280;12726;49.148;8.582;2022-11-20T00:03:26;100009.53;;;3.70;100.00
24558;BME280;12726;49.148;8.582;2022-11-20T00:06:13;100019.38;;;3.69;100.00
24558;BME280;12726;49.148;8.582;2022-11-20T00:09:00;100016.50;;;3.71;100.00
24558;BME280;12726;49.148;8.582;2022-11-20T00:11:46;100014.84;;;3.70;100.00
24558;BME280;12726;49.148;8.582;2022-11-20T00:14:32;100016.50;;;3.71;100.00
24558;BME280;12726;49.148;8.582;2022-11-20T00:17:17;100014.66;;;3.71;100.00
24558;BME280;12726;49.148;8.582;2022-11-20T00:20:03;100013.00;;;3.70;100.00
24558;BME280;12726;49.148;8.582;2022-11-20T00:22:49;100018.00;;;3.73;100.00
24558;BME280;12726;49.148;8.582;2022-11-20T00:25:34;100014.78;;;3.78;100.00
24558;BME280;12726;49.148;8.582;2022-11-20T00:28:20;100009.94;;;3.81;100.00
24558;BME280;12726;49.148;8.582;2022-11-20T00:31:08;100009.28;;;3.79;100.00
24558;BME280;12726;49.148;8.582;2022-11-20T00:33:53;99998.63;;;3.79;100.00
24558;BME280;12726;49.148;8.582;2022-11-20T00:36:39;100007.47;;;3.80;100.00
24558;BME280;12726;49.148;8.582;2022-11-20T00:39:24;100003.31;;;3.77;100.00
24558;BME280;12726;49.148;8.582;2022-11-20T00:42:09;100001.53;;;3.70;100.00
24558;BME280;12726;49.148;8.582;2022-11-20T00:44:55;100006.84;;;3.70;100.00
24558;BME280;12726;49.148;8.582;2022-11-20T00:47:40;100014.03;;;3.69;100.00
24558;BME280;12726;49.148;8.582;2022-11-20T00:50:26;100010.66;;;3.75;100.00
24558;BME280;12726;49.148;8.582;2022-11-20T00:53:11;99998.81;;;3.78;100.00
24558;BME280;12726;49.148;8.582;2022-11-20T00:55:58;100002.69;;;3.75;100.00
24558;BME280;12726;49.148;8.582;2022-11-20T00:58:44;100003.97;;;3.79;100.00
24558;BME280;12726;49.148;8.582;2022-11-20T01:01:31;100000.00;;;3.75;100.00
24558;BME280;12726;49.148;8.582;2022-11-20T01:04:16;100000.97;;;3.82;100.00
24558;BME280;12726;49.148;8.582;2022-11-20T01:07:02;99996.34;;;3.76;100.00
24558;BME280;12726;49.148;8.582;2022-11-20T01:09:47;100001.97;;;3.81;100.00
24558;BME280;12726;49.148;8.582;2022-11-20T01:12:32;100000.84;;;3.76;100.00
24558;BME280;12726;49.148;8.582;2022-11-20T01:15:18;100006.16;;;3.76;100.00
24558;BME280;12726;49.148;8.582;2022-11-20T01:18:04;99994.19;;;3.72;100.00
24558;BME280;12726;49.148;8.582;2022-11-20T01:20:50;99993.69;;;3.76;100.00
24558;BME280;12726;49.148;8.582;2022-11-20T01:23:37;99996.97;;;3.78;100.00
24558;BME280;12726;49.148;8.582;2022-11-20T01:26:24;99997.16;;;3.77;100.00
24558;BME280;12726;49.148;8.582;2022-11-20T01:29:13;99996.34;;;3.76;100.00
24558;BME280;12726;49.148;8.582;2022-11-20T01:31:59;99998.81;;;3.78;100.00
24558;BME280;12726;49.148;8.582;2022-11-20T01:34:45;100010.66;;;3.75;100.00
24558;BME280;12726;49.148;8.582;2022-11-20T01:37:30;99993.84;;;3.75;100.00
24558;BME280;12726;49.148;8.582;2022-11-20T01:40:15;100005.38;;;3.90;100.00
24558;BME280;12726;49.148;8.582;2022-11-20T01:43:12;100000.25;;;3.88;100.00
24558;BME280;12726;49.148;8.582;2022-11-20T01:46:15;100004.25;;;3.84;100.00
24558;BME280;12726;49.148;8.582;2022-11-20T01:49:02;99988.47;;;3.83;100.00
24558;BME280;12726;49.148;8.582;2022-11-20T01:51:53;99995.09;;;3.87;100.00
24558;BME280;12726;49.148;8.582;2022-11-20T01:54:42;99986.75;;;3.90;100.00
24558;BME280;12726;49.148;8.582;2022-11-20T01:57:30;99988.59;;;3.89;100.00
24558;BME280;12726;49.148;8.582;2022-11-20T02:00:18;99984.91;;;3.90;100.00
24558;BME280;12726;49.148;8.582;2022-11-20T02:03:07;99988.03;;;3.94;100.00
24558;BME280;12726;49.148;8.582;2022-11-20T02:05:56;99983.53;;;3.94;100.00
24558;BME280;12726;49.148;8.582;2022-11-20T02:08:45;99973.16;;;4.00;100.00
24558;BME280;12726;49.148;8.582;2022-11-20T02:11:31;99975.66;;;4.01;100.00
24558;BME280;12726;49.148;8.582;2022-11-20T02:14:16;99984.13;;;4.05;100.00
24558;BME280;12726;49.148;8.582;2022-11-20T02:17:00;99970.06;;;4.11;100.00
24558;BME280;12726;49.148;8.582;2022-11-20T02:19:46;99975.50;;;4.17;100.00
24558;BME280;12726;49.148;8.582;2022-11-20T02:22:35;99987.25;;;4.23;100.00
24558;BME280;12726;49.148;8.582;2022-11-20T02:25:26;99977.25;;;4.25;100.00
24558;BME280;12726;49.148;8.582;2022-11-20T02:28:12;99975.44;;;4.25;100.00
24558;BME280;12726;49.148;8.582;2022-11-20T02:30:57;99969.25;;;4.25;100.00
24558;BME280;12726;49.148;8.582;2022-11-20T02:33:42;99967.59;;;4.24;100.00
24558;BME280;12726;49.148;8.582;2022-11-20T02:36:28;99981.19;;;4.29;100.00
24558;BME280;12726;49.148;8.582;2022-11-20T02:39:16;99971.66;;;4.34;100.00
24558;BME280;12726;49.148;8.582;2022-11-20T02:42:03;99962.28;;;4.39;100.00
24558;BME280;12726;49.148;8.582;2022-11-20T02:44:49;99962.28;;;4.39;100.00
24558;BME280;12726;49.148;8.582;2022-11-20T02:47:34;99960.91;;;4.43;100.00
24558;BME280;12726;49.148;8.582;2022-11-20T02:50:20;99954.81;;;4.49;100.00
24558;BME280;12726;49.148;8.582;2022-11-20T02:53:05;99935.25;;;4.56;100.00
24558;BME280;12726;49.148;8.582;2022-11-20T02:55:51;99939.56;;;4.57;100.00
24558;BME280;12726;49.148;8.582;2022-11-20T02:58:37;99939.22;;;4.46;100.00
24558;BME280;12726;49.148;8.582;2022-11-20T03:01:23;99947.66;;;4.49;100.00
24558;BME280;12726;49.148;8.582;2022-11-20T03:04:08;99954.47;;;4.52;100.00
24558;BME280;12726;49.148;8.582;2022-11-20T03:06:53;99940.31;;;4.51;100.00
24558;BME280;12726;49.148;8.582;2022-11-20T03:09:38;99956.75;;;4.55;100.00
24558;BME280;12726;49.148;8.582;2022-11-20T03:12:24;99941.59;;;4.55;100.00
24558;BME280;12726;49.148;8.582;2022-11-20T03:15:10;99950.06;;;4.59;100.00
24558;BME280;12726;49.148;8.582;2022-11-20T03:17:56;99940.88;;;4.61;100.00
24558;BME280;12726;49.148;8.582;2022-11-20T03:20:41;99938.47;;;4.66;100.00
24558;BME280;12726;49.148;8.582;2022-11-20T03:23:29;99945.72;;;4.72;100.00
24558;BME280;12726;49.148;8.582;2022-11-20T03:26:15;99935.78;;;4.81;100.00
24558;BME280;12726;49.148;8.582;2022-11-20T03:29:05;99933.63;;;4.91;100.00
24558;BME280;12726;49.148;8.582;2022-11-20T03:31:51;99924.75;;;5.05;100.00
24558;BME280;12726;49.148;8.582;2022-11-20T03:34:39;99933.06;;;5.32;100.00
24558;BME280;12726;49.148;8.582;2022-11-20T03:37:24;99923.28;;;5.60;100.00
24558;BME280;12726;49.148;8.582;2022-11-20T03:40:09;99929.69;;;5.66;100.00
24558;BME280;12726;49.148;8.582;2022-11-20T03:42:54;99924.78;;;5.90;100.00
24558;BME280;12726;49.148;8.582;2022-11-20T03:45:40;99925.47;;;5.99;100.00
24558;BME280;12726;49.148;8.582;2022-11-20T03:48:26;99929.59;;;6.02;100.00
24558;BME280;12726;49.148;8.582;2022-11-20T03:51:13;99923.28;;;6.09;100.00
24558;BME280;12726;49.148;8.582;2022-11-20T03:54:01;99932.72;;;6.12;100.00
24558;BME280;12726;49.148;8.582;2022-11-20T03:56:46;99921.91;;;6.20;100.00
24558;BME280;12726;49.148;8.582;2022-11-20T03:59:32;99928.44;;;6.11;100.00
24558;BME280;12726;49.148;8.582;2022-11-20T04:02:17;99932.41;;;6.21;100.00
24558;BME280;12726;49.148;8.582;2022-11-20T04:05:04;99927.25;;;6.20;100.00
24558;BME280;12726;49.148;8.582;2022-11-20T04:07:49;99936.13;;;6.27;100.00
24558;BME280;12726;49.148;8.582;2022-11-20T04:10:34;99929.38;;;6.31;100.00
24558;BME280;12726;49.148;8.582;2022-11-20T04:13:19;99929.38;;;6.31;100.00
24558;BME280;12726;49.148;8.582;2022-11-20T04:16:06;99936.38;;;6.32;100.00
24558;BME280;12726;49.148;8.582;2022-11-20T04:18:52;99933.03;;;6.23;100.00
24558;BME280;12726;49.148;8.582;2022-11-20T04:21:39;99930.00;;;6.33;100.00
24558;BME280;12726;49.148;8.582;2022-11-20T04:24:24;99930.00;;;6.33;100.00
24558;BME280;12726;49.148;8.582;2022-11-20T04:27:09;99928.28;;;6.25;100.00
24558;BME280;12726;49.148;8.582;2022-11-20T04:29:55;99920.50;;;6.24;100.00
24558;BME280;12726;49.148;8.582;2022-11-20T04:32:40;99929.56;;;6.29;100.00
24558;BME280;12726;49.148;8.582;2022-11-20T04:35:25;99922.41;;;6.37;100.00
24558;BME280;12726;49.148;8.582;2022-11-20T04:38:12;99918.94;;;6.43;100.00
24558;BME280;12726;49.148;8.582;2022-11-20T04:40:58;99923.91;;;6.46;100.00
24558;BME280;12726;49.148;8.582;2022-11-20T04:43:46;99920.84;;;6.49;100.00
24558;BME280;12726;49.148;8.582;2022-11-20T04:46:35;99918.16;;;6.49;100.00
24558;BME280;12726;49.148;8.582;2022-11-20T04:49:20;99920.00;;;6.48;100.00
24558;BME280;12726;49.148;8.582;2022-11-20T04:52:08;99921.47;;;6.51;100.00
24558;BME280;12726;49.148;8.582;2022-11-20T04:54:55;99921.47;;;6.51;100.00
24558;BME280;12726;49.148;8.582;2022-11-20T04:57:40;99918.16;;;6.49;100.00
24558;BME280;12726;49.148;8.582;2022-11-20T05:00:25;99912.25;;;6.53;100.00
24558;BME280;12726;49.148;8.582;2022-11-20T05:03:10;99915.97;;;6.59;100.00
24558;BME280;12726;49.148;8.582;2022-11-20T05:05:55;99913.09;;;6.60;100.00
24558;BME280;12726;49.148;8.582;2022-11-20T05:08:41;99909.16;;;6.56;100.00
24558;BME280;12726;49.148;8.582;2022-11-20T05:11:28;99909.16;;;6.56;100.00
24558;BME280;12726;49.148;8.582;2022-11-20T05:14:13;99905.66;;;6.62;100.00
24558;BME280;12726;49.148;8.582;2022-11-20T05:16:59;99905.47;;;6.64;100.00
24558;BME280;12726;49.148;8.582;2022-11-20T05:19:44;99900.13;;;6.64;100.00
24558;BME280;12726;49.148;8.582;2022-11-20T05:22:29;99908.34;;;6.62;100.00
24558;BME280;12726;49.148;8.582;2022-11-20T05:25:15;99901.78;;;6.65;100.00
24558;BME280;12726;49.148;8.582;2022-11-20T05:28:02;99906.72;;;6.68;100.00
24558;BME280;12726;49.148;8.582;2022-11-20T05:30:47;99906.34;;;6.71;100.00
24558;BME280;12726;49.148;8.582;2022-11-20T05:33:33;99906.94;;;6.66;100.00
24558;BME280;12726;49.148;8.582;2022-11-20T05:36:19;99909.41;;;6.68;100.00
24558;BME280;12726;49.148;8.582;2022-11-20T05:39:04;99910.03;;;6.70;100.00
24558;BME280;12726;49.148;8.582;2022-11-20T05:41:49;99908.19;;;6.71;100.00
24558;BME280;12726;49.148;8.582;2022-11-20T05:44:57;99905.69;;;6.69;100.00
24558;BME280;12726;49.148;8.582;2022-11-20T05:47:42;99908.38;;;6.69;100.00
24558;BME280;12726;49.148;8.582;2022-11-20T05:50:28;99901.38;;;6.68;100.00
24558;BME280;12726;49.148;8.582;2022-11-20T05:53:13;99904.50;;;6.72;100.00
24558;BME280;12726;49.148;8.582;2022-11-20T05:55:59;99909.00;;;6.71;100.00
24558;BME280;12726;49.148;8.582;2022-11-20T05:58:45;99902.63;;;6.65;100.00
24558;BME280;12726;49.148;8.582;2022-11-20T06:01:31;99910.03;;;6.70;100.00
24558;BME280;12726;49.148;8.582;2022-11-20T06:04:17;99916.41;;;6.69;100.00
24558;BME280;12726;49.148;8.582;2022-11-20T06:07:02;99915.19;;;6.72;100.00
24558;BME280;12726;49.148;8.582;2022-11-20T06:09:47;99924.00;;;6.65;100.00
24558;BME280;12726;49.148;8.582;2022-11-20T06:12:32;99919.03;;;6.62;100.00
24558;BME280;12726;49.148;8.582;2022-11-20T06:15:18;99923.16;;;6.58;100.00
24558;BME280;12726;49.148;8.582;2022-11-20T06:18:05;99911.00;;;6.56;100.00
24558;BME280;12726;49.148;8.582;2022-11-20T06:20:59;99916.50;;;6.48;100.00
24558;BME280;12726;49.148;8.582;2022-11-20T06:23:44;99911.16;;;6.48;100.00
24558;BME280;12726;49.148;8.582;2022-11-20T06:26:30;99912.19;;;6.47;100.00
24558;BME280;12726;49.148;8.582;2022-11-20T06:29:15;99914.06;;;6.46;100.00
24558;BME280;12726;49.148;8.582;2022-11-20T06:32:01;99920.00;;;6.48;100.00
24558;BME280;12726;49.148;8.582;2022-11-20T06:34:48;99915.69;;;6.47;100.00
24558;BME280;12726;49.148;8.582;2022-11-20T06:37:33;99921.03;;;6.47;100.00
24558;BME280;12726;49.148;8.582;2022-11-20T06:40:18;99929.47;;;6.44;100.00
24558;BME280;12726;49.148;8.582;2022-11-20T06:43:03;99917.53;;;6.47;100.00
24558;BME280;12726;49.148;8.582;2022-11-20T06:45:52;99927.41;;;6.46;100.00
24558;BME280;12726;49.148;8.582;2022-11-20T06:48:36;99934.19;;;6.49;100.00
24558;BME280;12726;49.148;8.582;2022-11-20T06:51:23;99932.53;;;6.48;100.00
24558;BME280;12726;49.148;8.582;2022-11-20T06:54:08;99928.03;;;6.48;100.00
24558;BME280;12726;49.148;8.582;2022-11-20T06:56:53;99925.53;;;6.47;100.00
24558;BME280;12726;49.148;8.582;2022-11-20T06:59:39;99932.34;;;6.49;100.00
24558;BME280;12726;49.148;8.582;2022-11-20T07:02:24;99933.81;;;6.52;100.00
24558;BME280;12726;49.148;8.582;2022-11-20T07:05:09;99939.16;;;6.52;100.00
24558;BME280;12726;49.148;8.582;2022-11-20T07:07:56;99933.00;;;6.51;100.00
24558;BME280;12726;49.148;8.582;2022-11-20T07:10:42;99931.97;;;6.52;100.00
24558;BME280;12726;49.148;8.582;2022-11-20T07:13:28;99942.44;;;6.54;100.00
24558;BME280;12726;49.148;8.582;2022-11-20T07:16:14;99935.91;;;6.56;100.00
24558;BME280;12726;49.148;8.582;2022-11-20T07:18:59;99947.38;;;6.50;100.00
24558;BME280;12726;49.148;8.582;2022-11-20T07:21:44;99948.81;;;6.46;100.00
24558;BME280;12726;49.148;8.582;2022-11-20T07:24:31;99952.88;;;6.42;100.00
24558;BME280;12726;49.148;8.582;2022-11-20T07:27:16;99955.56;;;6.42;100.00
24558;BME280;12726;49.148;8.582;2022-11-20T07:30:02;99964.00;;;6.39;100.00
24558;BME280;12726;49.148;8.582;2022-11-20T07:32:50;99967.22;;;6.35;100.00
24558;BME280;12726;49.148;8.582;2022-11-20T07:35:35;99963.34;;;6.37;100.00
24558;BME280;12726;49.148;8.582;2022-11-20T07:38:21;99954.06;;;6.33;100.00
24558;BME280;12726;49.148;8.582;2022-11-20T07:41:07;99963.91;;;6.33;100.00
24558;BME280;12726;49.148;8.582;2022-11-20T07:43:53;99958.22;;;6.42;100.00
24558;BME280;12726;49.148;8.582;2022-11-20T07:46:38;99963.59;;;6.42;100.00
24558;BME280;12726;49.148;8.582;2022-11-20T07:49:23;99963.81;;;6.47;100.00
24558;BME280;12726;49.148;8.582;2022-11-20T07:52:08;99968.31;;;6.47;100.00
24558;BME280;12726;49.148;8.582;2022-11-20T07:54:54;99968.56;;;6.45;100.00
24558;BME280;12726;49.148;8.582;2022-11-20T07:57:41;99976.13;;;6.42;100.00
24558;BME280;12726;49.148;8.582;2022-11-20T08:00:26;99972.25;;;6.44;100.00
24558;BME280;12726;49.148;8.582;2022-11-20T08:03:12;99978.41;;;6.45;100.00
24558;BME280;12726;49.148;8.582;2022-11-20T08:05:58;99975.34;;;6.48;100.00
24558;BME280;12726;49.148;8.582;2022-11-20T08:08:44;99975.16;;;6.49;100.00
24558;BME280;12726;49.148;8.582;2022-11-20T08:11:29;99976.16;;;6.48;100.00
24558;BME280;12726;49.148;8.582;2022-11-20T08:14:34;99988.09;;;6.46;100.00
24558;BME280;12726;49.148;8.582;2022-11-20T08:17:19;99990.78;;;6.46;100.00
24558;BME280;12726;49.148;8.582;2022-11-20T08:20:05;99995.25;;;6.39;100.00
24558;BME280;12726;49.148;8.582;2022-11-20T08:22:51;99981.47;;;6.42;100.00
24558;BME280;12726;49.148;8.582;2022-11-20T08:25:37;99980.25;;;6.44;100.00
24558;BME280;12726;49.148;8.582;2022-11-20T08:28:23;99986.81;;;6.42;100.00
24558;BME280;12726;49.148;8.582;2022-11-20T08:31:10;99982.09;;;6.44;100.00
24558;BME280;12726;49.148;8.582;2022-11-20T08:33:56;99974.28;;;6.42;100.00
24558;BME280;12726;49.148;8.582;2022-11-20T08:36:41;99978.22;;;6.46;100.00
24558;BME280;12726;49.148;8.582;2022-11-20T08:39:27;99982.78;;;6.52;100.00
24558;BME280;12726;49.148;8.582;2022-11-20T08:42:12;99983.00;;;6.57;100.00
24558;BME280;12726;49.148;8.582;2022-11-20T08:44:58;99974.19;;;6.63;100.00
24558;BME280;12726;49.148;8.582;2022-11-20T08:47:45;99985.13;;;6.68;100.00
24558;BME280;12726;49.148;8.582;2022-11-20T08:50:30;99979.81;;;6.75;100.00
24558;BME280;12726;49.148;8.582;2022-11-20T08:53:16;99979.03;;;6.81;100.00
24558;BME280;12726;49.148;8.582;2022-11-20T08:56:01;99994.88;;;6.83;100.00
24558;BME280;12726;49.148;8.582;2022-11-20T08:58:46;99991.63;;;6.87;100.00
24558;BME280;12726;49.148;8.582;2022-11-20T09:01:31;100003.34;;;6.86;100.00
24558;BME280;12726;49.148;8.582;2022-11-20T09:04:18;99994.13;;;6.95;100.00
24558;BME280;12726;49.148;8.582;2022-11-20T09:07:03;99999.03;;;6.92;100.00
24558;BME280;12726;49.148;8.582;2022-11-20T09:09:49;100002.34;;;6.94;100.00
24558;BME280;12726;49.148;8.582;2022-11-20T09:12:34;100007.28;;;6.97;100.00
24558;BME280;12726;49.148;8.582;2022-11-20T09:15:19;100004.03;;;7.01;100.00
24558;BME280;12726;49.148;8.582;2022-11-20T09:18:04;100001.38;;;7.08;100.00
24558;BME280;12726;49.148;8.582;2022-11-20T09:20:51;100005.94;;;7.14;100.00
24558;BME280;12726;49.148;8.582;2022-11-20T09:23:38;100002.88;;;7.17;100.00
24558;BME280;12726;49.148;8.582;2022-11-20T09:26:23;100007.41;;;7.17;100.00
24558;BME280;12726;49.148;8.582;2022-11-20T09:29:09;100008.03;;;7.25;100.00
24558;BME280;12726;49.148;8.582;2022-11-20T09:31:54;100002.69;;;7.32;100.00
24558;BME280;12726;49.148;8.582;2022-11-20T09:34:40;100012.41;;;7.39;100.00
24558;BME280;12726;49.148;8.582;2022-11-20T09:37:27;100008.53;;;7.48;100.00
24558;BME280;12726;49.148;8.582;2022-11-20T09:40:19;99998.47;;;7.77;100.00
24558;BME280;12726;49.148;8.582;2022-11-20T09:43:11;99998.50;;;8.16;100.00
24558;BME280;12726;49.148;8.582;2022-11-20T09:46:05;99986.31;;;10.18;93.88
24558;BME280;12726;49.148;8.582;2022-11-20T09:49:02;99998.53;;;10.64;89.54
24558;BME280;12726;49.148;8.582;2022-11-20T09:51:57;100006.06;;;9.74;91.92
24558;BME280;12726;49.148;8.582;2022-11-20T09:54:44;100013.13;;;9.24;94.95
24558;BME280;12726;49.148;8.582;2022-11-20T09:57:34;100021.91;;;9.07;97.45
24558;BME280;12726;49.148;8.582;2022-11-20T10:00:21;100027.34;;;8.67;99.10
24558;BME280;12726;49.148;8.582;2022-11-20T10:03:13;100030.72;;;8.36;100.00
24558;BME280;12726;49.148;8.582;2022-11-20T10:06:02;100026.13;;;8.10;100.00
24558;BME280;12726;49.148;8.582;2022-11-20T10:08:57;100018.50;;;7.94;100.00
24558;BME280;12726;49.148;8.582;2022-11-20T10:11:51;100025.09;;;7.92;100.00
24558;BME280;12726;49.148;8.582;2022-11-20T10:15:05;100014.38;;;7.85;100.00
24558;BME280;12726;49.148;8.582;2022-11-20T10:18:17;100021.56;;;7.78;100.00
24558;BME280;12726;49.148;8.582;2022-11-20T10:21:11;100006.72;;;7.75;100.00
24558;BME280;12726;49.148;8.582;2022-11-20T10:24:24;100014.94;;;7.61;100.00
24558;BME280;12726;49.148;8.582;2022-11-20T10:27:35;100019.88;;;7.57;100.00
24558;BME280;12726;49.148;8.582;2022-11-20T10:30:23;100021.28;;;7.53;100.00
24558;BME280;12726;49.148;8.582;2022-11-20T10:33:15;100017.84;;;7.59;100.00
24558;BME280;12726;49.148;8.582;2022-11-20T10:36:05;100006.31;;;7.78;100.00
24558;BME280;12726;49.148;8.582;2022-11-20T10:38:56;100024.47;;;7.96;100.00
24558;BME280;12726;49.148;8.582;2022-11-20T10:41:44;100016.25;;;8.24;100.00
24558;BME280;12726;49.148;8.582;2022-11-20T10:44:36;100007.13;;;8.78;100.00
24558;BME280;12726;49.148;8.582;2022-11-20T10:47:40;99998.44;;;9.71;95.87
24558;BME280;12726;49.148;8.582;2022-11-20T10:50:26;99996.69;;;9.83;94.42
24558;BME280;12726;49.148;8.582;2022-11-20T10:53:20;99998.03;;;9.68;92.97
24558;BME280;12726;49.148;8.582;2022-11-20T10:56:17;99994.41;;;9.56;94.91
24558;BME280;12726;49.148;8.582;2022-11-20T10:59:27;99982.25;;;9.47;96.33
24558;BME280;12726;49.148;8.582;2022-11-20T11:02:20;99986.28;;;9.24;96.30
24558;BME280;12726;49.148;8.582;2022-11-20T11:05:16;99990.66;;;9.57;95.39
24558;BME280;12726;49.148;8.582;2022-11-20T11:08:07;99979.50;;;9.53;93.32
24558;BME280;12726;49.148;8.582;2022-11-20T11:10:57;99975.22;;;9.46;94.64
24558;BME280;12726;49.148;8.582;2022-11-20T11:13:44;99976.66;;;9.48;94.87
24558;BME280;12726;49.148;8.582;2022-11-20T11:16:29;99979.13;;;9.81;92.38
24558;BME280;12726;49.148;8.582;2022-11-20T11:19:16;99966.91;;;9.85;93.46
24558;BME280;12726;49.148;8.582;2022-11-20T11:22:11;99959.47;;;9.87;91.93
24558;BME280;12726;49.148;8.582;2022-11-20T11:25:01;99960.19;;;9.69;93.38
24558;BME280;12726;49.148;8.582;2022-11-20T11:27:46;99958.38;;;9.88;91.51
24558;BME280;12726;49.148;8.582;2022-11-20T11:30:41;99955.06;;;9.93;89.01
24558;BME280;12726;49.148;8.582;2022-11-20T11:33:28;99945.59;;;9.83;90.15
24558;BME280;12726;49.148;8.582;2022-11-20T11:36:19;99947.69;;;9.57;92.15
24558;BME280;12726;49.148;8.582;2022-11-20T11:39:12;99946.75;;;9.69;90.72
24558;BME280;12726;49.148;8.582;2022-11-20T11:42:00;99942.53;;;10.05;91.10
24558;BME280;12726;49.148;8.582;2022-11-20T11:44:47;99934.41;;;10.11;86.71
24558;BME280;12726;49.148;8.582;2022-11-20T11:47:51;99936.63;;;10.21;85.67
24558;BME280;12726;49.148;8.582;2022-11-20T11:50:37;99931.69;;;9.93;85.63
24558;BME280;12726;49.148;8.582;2022-11-20T11:53:40;99917.44;;;9.61;86.20
24558;BME280;12726;49.148;8.582;2022-11-20T11:56:26;99918.47;;;9.35;86.17
24558;BME280;12726;49.148;8.582;2022-11-20T11:59:15;99920.78;;;9.25;89.08
24558;BME280;12726;49.148;8.582;2022-11-20T12:02:15;99925.63;;;9.10;90.86
24558;BME280;12726;49.148;8.582;2022-11-20T12:05:17;99928.00;;;9.25;90.71
24558;BME280;12726;49.148;8.582;2022-11-20T12:08:05;99922.19;;;9.34;91.44
24558;BME280;12726;49.148;8.582;2022-11-20T12:10:57;99915.00;;;9.85;90.27
24558;BME280;12726;49.148;8.582;2022-11-20T12:13:50;99915.72;;;11.56;81.13
24558;BME280;12726;49.148;8.582;2022-11-20T12:16:38;99913.91;;;13.58;72.58
24558;BME280;12726;49.148;8.582;2022-11-20T12:19:24;99905.31;;;15.90;58.58
24558;BME280;12726;49.148;8.582;2022-11-20T12:22:20;99894.72;;;17.81;51.22
24558;BME280;12726;49.148;8.582;2022-11-20T12:25:11;99893.63;;;17.82;49.26
24558;BME280;12726;49.148;8.582;2022-11-20T12:31:27;99911.94;;;16.04;54.03
24558;BME280;12726;49.148;8.582;2022-11-20T12:34:31;99904.19;;;14.62;54.89
24558;BME280;12726;49.148;8.582;2022-11-20T12:37:33;99905.56;;;13.93;57.31
24558;BME280;12726;49.148;8.582;2022-11-20T12:40:28;99899.56;;;13.57;58.32
24558;BME280;12726;49.148;8.582;2022-11-20T12:43:21;99894.13;;;13.12;58.37
24558;BME280;12726;49.148;8.582;2022-11-20T12:46:31;99890.53;;;12.43;62.13
24558;BME280;12726;49.148;8.582;2022-11-20T12:49:29;99891.16;;;11.34;63.15
24558;BME280;12726;49.148;8.582;2022-11-20T12:52:27;99900.19;;;10.43;67.14
24558;BME280;12726;49.148;8.582;2022-11-20T12:55:30;99898.22;;;10.32;67.92
24558;BME280;12726;49.148;8.582;2022-11-20T12:58:27;99890.00;;;10.02;69.80
24558;BME280;12726;49.148;8.582;2022-11-20T13:01:25;99892.59;;;9.91;70.01
24558;BME280;12726;49.148;8.582;2022-11-20T13:07:44;99888.91;;;9.60;73.56
24558;BME280;12726;49.148;8.582;2022-11-20T13:10:35;99890.88;;;9.47;72.38
24558;BME280;12726;49.148;8.582;2022-11-20T13:13:28;99885.00;;;9.31;71.95
24558;BME280;12726;49.148;8.582;2022-11-20T13:16:19;99878.06;;;9.17;71.69
24558;BME280;12726;49.148;8.582;2022-11-20T13:19:09;99875.22;;;9.12;72.44
24558;BME280;12726;49.148;8.582;2022-11-20T13:21:56;99876.84;;;9.13;71.88
24558;BME280;12726;49.148;8.582;2022-11-20T13:24:50;99874.19;;;9.13;72.61
24558;BME280;12726;49.148;8.582;2022-11-20T13:27:46;99858.72;;;9.09;72.83
24558;BME280;12726;49.148;8.582;2022-11-20T13:30:35;99860.72;;;9.20;72.29
24558;BME280;12726;49.148;8.582;2022-11-20T13:33:23;99859.22;;;9.24;71.96
24558;BME280;12726;49.148;8.582;2022-11-20T13:36:21;99857.56;;;9.29;71.23
24558;BME280;12726;49.148;8.582;2022-11-20T13:39:08;99858.84;;;9.52;70.76
24558;BME280;12726;49.148;8.582;2022-11-20T13:41:54;99857.31;;;9.80;68.52
24558;BME280;12726;49.148;8.582;2022-11-20T13:44:44;99853.44;;;9.76;67.76
24558;BME280;12726;49.148;8.582;2022-11-20T13:47:31;99846.09;;;9.65;65.95
24558;BME280;12726;49.148;8.582;2022-11-20T13:50:17;99854.31;;;9.46;67.04
24558;BME280;12726;49.148;8.582;2022-11-20T13:53:08;99855.25;;;9.33;67.48
24558;BME280;12726;49.148;8.582;2022-11-20T13:56:01;99850.94;;;9.25;67.28
24558;BME280;12726;49.148;8.582;2022-11-20T13:58:56;99841.47;;;9.23;66.33
24558;BME280;12726;49.148;8.582;2022-11-20T14:01:45;99843.72;;;9.26;65.37
24558;BME280;12726;49.148;8.582;2022-11-20T14:04:33;99839.84;;;9.22;66.19
24558;BME280;12726;49.148;8.582;2022-11-20T14:07:22;99845.47;;;9.14;66.67
24558;BME280;12726;49.148;8.582;2022-11-20T14:10:21;99843.97;;;9.18;66.56
24558;BME280;12726;49.148;8.582;2022-11-20T14:13:10;99850.63;;;9.15;67.08
24558;BME280;12726;49.148;8.582;2022-11-20T14:15:57;99835.22;;;8.97;67.35
24558;BME280;12726;49.148;8.582;2022-11-20T14:18:42;99837.97;;;8.91;67.88
24558;BME280;12726;49.148;8.582;2022-11-20T14:21:29;99835.72;;;8.81;68.86
24558;BME280;12726;49.148;8.582;2022-11-20T14:24:19;99840.09;;;8.76;69.02
24558;BME280;12726;49.148;8.582;2022-11-20T14:27:04;99834.97;;;8.68;70.73
24558;BME280;12726;49.148;8.582;2022-11-20T14:29:50;99842.44;;;8.66;69.61
24558;BME280;12726;49.148;8.582;2022-11-20T14:32:35;99835.03;;;8.54;70.68
24558;BME280;12726;49.148;8.582;2022-11-20T14:35:24;99824.09;;;8.56;70.30
24558;BME280;12726;49.148;8.582;2022-11-20T14:38:13;99821.63;;;8.54;70.08
24558;BME280;12726;49.148;8.582;2022-11-20T14:41:06;99822.44;;;8.55;69.48
24558;BME280;12726;49.148;8.582;2022-11-20T14:43:54;99825.59;;;8.45;70.11
24558;BME280;12726;49.148;8.582;2022-11-20T14:46:40;99821.06;;;8.39;70.74
24558;BME280;12726;49.148;8.582;2022-11-20T14:49:29;99821.09;;;8.33;71.16
24558;BME280;12726;49.148;8.582;2022-11-20T14:52:17;99823.56;;;8.34;70.77
24558;BME280;12726;49.148;8.582;2022-11-20T14:55:04;99809.53;;;8.25;71.72
24558;BME280;12726;49.148;8.582;2022-11-20T14:57:54;99807.50;;;8.21;71.84